createdAt,value
2018-05-07T00:00:55.508Z,15.57
2018-05-07T00:01:55.427Z,15.45
2018-05-07T00:02:55.359Z,15.38
2018-05-07T00:03:55.282Z,15.33
2018-05-07T00:04:55.209Z,15.18
2018-05-07T00:05:55.232Z,15.18
2018-05-07T00:06:55.063Z,15.09
2018-05-07T00:07:54.992Z,15.12
2018-05-07T00:08:54.919Z,15.06
2018-05-07T00:09:54.846Z,15.03
2018-05-07T00:10:54.773Z,14.87
2018-05-07T00:11:54.719Z,14.78
2018-05-07T00:12:54.668Z,14.78
2018-05-07T00:13:54.554Z,14.57
2018-05-07T00:14:54.481Z,14.59
2018-05-07T00:15:54.407Z,14.59
2018-05-07T00:16:54.337Z,14.60
2018-05-07T00:17:54.263Z,14.47
2018-05-07T00:18:54.189Z,14.44
2018-05-07T00:19:54.116Z,14.28
2018-05-07T00:20:54.043Z,14.28
2018-05-07T00:21:53.970Z,14.17
2018-05-07T00:22:53.896Z,14.17
2018-05-07T00:23:53.823Z,14.09
2018-05-07T00:24:53.788Z,14.05
2018-05-07T00:25:53.680Z,13.92
2018-05-07T00:26:53.606Z,13.86
2018-05-07T00:27:53.529Z,13.86
2018-05-07T00:28:53.457Z,13.78
2018-05-07T00:29:53.535Z,13.71
2018-05-07T00:30:53.313Z,13.55
2018-05-07T00:31:53.237Z,13.53
2018-05-07T00:32:53.164Z,13.48
2018-05-07T00:33:53.091Z,13.40
2018-05-07T00:34:53.016Z,13.27
2018-05-07T00:35:52.942Z,13.29
2018-05-07T00:36:52.870Z,13.14
2018-05-07T00:37:52.795Z,13.10
2018-05-07T00:38:52.723Z,13.17
2018-05-07T00:39:52.649Z,13.09
2018-05-07T00:40:52.576Z,13.06
2018-05-07T00:41:52.501Z,13.09
2018-05-07T00:42:52.427Z,13.03
2018-05-07T00:43:52.354Z,13.06
2018-05-07T00:44:52.280Z,13.06
2018-05-07T00:45:52.205Z,12.96
2018-05-07T00:46:52.138Z,13.11
2018-05-07T00:47:52.057Z,13.09
2018-05-07T00:48:51.983Z,13.18
2018-05-07T00:49:51.910Z,13.37
2018-05-07T00:50:51.836Z,13.40
2018-05-07T00:51:51.762Z,13.44
2018-05-07T00:52:51.689Z,13.58
2018-05-07T00:53:51.615Z,13.81
2018-05-07T00:54:51.538Z,14.03
2018-05-07T00:55:51.466Z,14.24
2018-05-07T00:56:51.393Z,14.31
2018-05-07T00:57:51.318Z,14.60
2018-05-07T00:58:51.244Z,14.79
2018-05-07T00:59:51.169Z,14.93
2018-05-07T01:00:51.096Z,14.90
2018-05-07T01:01:51.022Z,14.98
2018-05-07T01:02:50.947Z,14.98
2018-05-07T01:03:50.879Z,14.95
2018-05-07T01:04:50.800Z,14.87
2018-05-07T01:05:50.732Z,14.84
2018-05-07T01:06:50.651Z,14.85
2018-05-07T01:07:50.582Z,14.93
2018-05-07T01:08:50.505Z,14.83
2018-05-07T01:09:50.431Z,14.75
2018-05-07T01:10:50.356Z,14.72
2018-05-07T01:11:50.283Z,14.74
2018-05-07T01:12:50.252Z,14.68
2018-05-07T01:13:50.138Z,14.69
2018-05-07T01:14:50.066Z,14.78
2018-05-07T01:15:49.988Z,14.80
2018-05-07T01:16:49.914Z,14.69
2018-05-07T01:17:49.841Z,14.67
2018-05-07T01:18:49.767Z,14.57
2018-05-07T01:19:49.693Z,14.35
2018-05-07T01:20:49.620Z,14.34
2018-05-07T01:21:49.547Z,14.31
2018-05-07T01:22:49.473Z,14.14
2018-05-07T01:23:49.398Z,14.28
2018-05-07T01:24:49.324Z,14.27
2018-05-07T01:26:49.176Z,14.23
2018-05-07T01:27:49.102Z,14.11
2018-05-07T01:28:49.031Z,14.14
2018-05-07T01:29:48.955Z,14.19
2018-05-07T01:30:48.880Z,14.20
2018-05-07T01:31:48.807Z,14.17
2018-05-07T01:32:48.737Z,14.13
2018-05-07T01:33:48.660Z,14.11
2018-05-07T01:34:48.585Z,14.02
2018-05-07T01:35:48.511Z,14.01
2018-05-07T01:36:48.438Z,13.91
2018-05-07T01:37:48.363Z,13.81
2018-05-07T01:38:48.289Z,13.83
2018-05-07T01:39:48.215Z,13.80
2018-05-07T01:40:48.142Z,13.65
2018-05-07T01:41:48.067Z,13.70
2018-05-07T01:42:47.994Z,13.63
2018-05-07T01:43:47.920Z,13.65
2018-05-07T01:44:47.846Z,13.58
2018-05-07T01:45:47.772Z,13.45
2018-05-07T01:46:47.697Z,13.41
2018-05-07T01:47:47.624Z,13.32
2018-05-07T01:48:47.549Z,13.14
2018-05-07T01:49:47.477Z,13.11
2018-05-07T01:50:47.401Z,13.09
2018-05-07T01:51:47.328Z,13.19
2018-05-07T01:52:47.254Z,13.18
2018-05-07T01:53:47.180Z,13.17
2018-05-07T01:54:47.104Z,13.18
2018-05-07T01:55:47.030Z,13.11
2018-05-07T01:56:46.957Z,13.03
2018-05-07T01:57:46.884Z,13.07
2018-05-07T01:58:46.809Z,12.97
2018-05-07T01:59:46.735Z,13.00
2018-05-07T02:00:46.670Z,13.00
2018-05-07T02:01:46.586Z,12.99
2018-05-07T02:02:46.520Z,12.84
2018-05-07T02:03:46.437Z,12.82
2018-05-07T02:04:46.362Z,12.73
2018-05-07T02:05:46.289Z,12.70
2018-05-07T02:06:46.212Z,12.69
2018-05-07T02:07:46.139Z,12.71
2018-05-07T02:08:46.065Z,12.63
2018-05-07T02:09:45.992Z,12.60
2018-05-07T02:10:45.915Z,12.55
2018-05-07T02:11:45.841Z,12.56
2018-05-07T02:12:45.767Z,12.63
2018-05-07T02:13:45.693Z,12.64
2018-05-07T02:14:45.617Z,12.60
2018-05-07T02:15:45.543Z,12.64
2018-05-07T02:16:45.473Z,12.63
2018-05-07T02:17:45.395Z,12.45
2018-05-07T02:18:45.320Z,12.51
2018-05-07T02:19:45.246Z,12.52
2018-05-07T02:20:45.170Z,12.39
2018-05-07T02:21:45.098Z,12.37
2018-05-07T02:22:45.021Z,12.27
2018-05-07T02:23:44.946Z,12.26
2018-05-07T02:24:44.872Z,12.23
2018-05-07T02:25:44.797Z,12.06
2018-05-07T02:26:44.723Z,12.08
2018-05-07T02:27:44.650Z,12.05
2018-05-07T02:28:44.572Z,12.19
2018-05-07T02:29:44.499Z,12.15
2018-05-07T02:30:44.429Z,12.11
2018-05-07T02:31:44.350Z,12.09
2018-05-07T02:32:44.275Z,12.12
2018-05-07T02:33:44.203Z,12.09
2018-05-07T02:34:44.125Z,11.98
2018-05-07T02:35:44.057Z,11.90
2018-05-07T02:36:43.974Z,11.81
2018-05-07T02:37:43.901Z,11.83
2018-05-07T02:38:43.824Z,11.79
2018-05-07T02:39:43.751Z,11.81
2018-05-07T02:40:43.677Z,11.76
2018-05-07T02:41:43.602Z,11.67
2018-05-07T02:42:43.526Z,11.67
2018-05-07T02:43:43.458Z,11.56
2018-05-07T02:44:43.376Z,11.46
2018-05-07T02:45:43.303Z,11.49
2018-05-07T02:46:43.226Z,11.50
2018-05-07T02:47:43.153Z,11.43
2018-05-07T02:48:43.077Z,11.53
2018-05-07T02:49:43.002Z,11.47
2018-05-07T02:50:42.926Z,11.50
2018-05-07T02:51:42.851Z,11.56
2018-05-07T02:52:42.780Z,11.46
2018-05-07T02:53:42.701Z,11.41
2018-05-07T02:54:42.626Z,11.42
2018-05-07T02:55:42.552Z,11.36
2018-05-07T02:56:42.476Z,11.26
2018-05-07T02:57:42.401Z,11.29
2018-05-07T02:58:42.324Z,11.39
2018-05-07T02:59:42.249Z,11.38
2018-05-07T03:00:42.175Z,11.47
2018-05-07T03:01:42.102Z,11.29
2018-05-07T03:02:42.024Z,11.28
2018-05-07T03:03:41.949Z,11.32
2018-05-07T03:04:41.878Z,11.26
2018-05-07T03:05:41.799Z,11.23
2018-05-07T03:06:41.722Z,11.14
2018-05-07T03:07:41.648Z,11.10
2018-05-07T03:08:41.572Z,11.02
2018-05-07T03:09:41.498Z,10.93
2018-05-07T03:10:41.421Z,10.95
2018-05-07T03:11:41.346Z,10.87
2018-05-07T03:12:41.270Z,10.96
2018-05-07T03:13:41.196Z,10.92
2018-05-07T03:14:41.119Z,10.80
2018-05-07T03:15:41.044Z,10.80
2018-05-07T03:16:40.969Z,10.81
2018-05-07T03:17:40.894Z,10.87
2018-05-07T03:18:40.817Z,10.83
2018-05-07T03:19:40.746Z,10.83
2018-05-07T03:20:40.667Z,10.74
2018-05-07T03:21:40.593Z,10.78
2018-05-07T03:22:40.514Z,10.78
2018-05-07T03:23:40.440Z,10.87
2018-05-07T03:24:40.382Z,10.77
2018-05-07T03:25:40.289Z,10.67
2018-05-07T03:26:40.213Z,10.75
2018-05-07T03:27:40.138Z,10.87
2018-05-07T03:28:40.062Z,10.84
2018-05-07T03:29:39.986Z,10.87
2018-05-07T03:30:39.910Z,10.85
2018-05-07T03:31:39.834Z,10.85
2018-05-07T03:32:39.759Z,10.87
2018-05-07T03:33:39.684Z,10.78
2018-05-07T03:34:39.607Z,10.81
2018-05-07T03:35:39.531Z,10.83
2018-05-07T03:36:39.455Z,10.83
2018-05-07T03:37:39.381Z,10.85
2018-05-07T03:38:39.305Z,10.88
2018-05-07T03:39:39.229Z,10.83
2018-05-07T03:40:39.153Z,10.81
2018-05-07T03:41:39.078Z,10.78
2018-05-07T03:42:39.002Z,10.73
2018-05-07T03:43:38.926Z,10.67
2018-05-07T03:44:38.852Z,10.65
2018-05-07T03:45:38.777Z,10.66
2018-05-07T03:46:38.698Z,10.40
2018-05-07T03:47:38.623Z,10.46
2018-05-07T03:48:38.571Z,10.59
2018-05-07T03:49:38.472Z,10.44
2018-05-07T03:50:38.398Z,10.53
2018-05-07T03:51:38.319Z,10.37
2018-05-07T03:52:38.245Z,10.43
2018-05-07T03:53:38.170Z,10.47
2018-05-07T03:54:38.092Z,10.44
2018-05-07T03:55:38.016Z,10.43
2018-05-07T03:56:37.941Z,10.46
2018-05-07T03:57:37.865Z,10.43
2018-05-07T03:58:37.787Z,10.44
2018-05-07T03:59:37.720Z,10.55
2018-05-07T04:00:37.637Z,10.56
2018-05-07T04:01:37.561Z,10.46
2018-05-07T04:02:37.485Z,10.55
2018-05-07T04:03:37.409Z,10.60
2018-05-07T04:04:37.334Z,10.73
2018-05-07T04:05:37.257Z,10.84
2018-05-07T04:06:37.180Z,10.78
2018-05-07T04:07:37.110Z,10.93
2018-05-07T04:08:37.029Z,11.03
2018-05-07T04:09:36.953Z,10.99
2018-05-07T04:10:36.877Z,11.02
2018-05-07T04:11:36.801Z,10.96
2018-05-07T04:12:36.726Z,11.02
2018-05-07T04:13:36.651Z,11.06
2018-05-07T04:14:36.578Z,11.10
2018-05-07T04:15:36.499Z,10.99
2018-05-07T04:16:36.424Z,11.06
2018-05-07T04:17:36.347Z,11.03
2018-05-07T04:18:36.270Z,10.95
2018-05-07T04:19:36.195Z,10.99
2018-05-07T04:20:36.122Z,11.03
2018-05-07T04:21:36.095Z,10.98
2018-05-07T04:22:35.968Z,10.99
2018-05-07T04:23:35.984Z,11.05
2018-05-07T04:24:35.821Z,10.93
2018-05-07T04:25:35.742Z,10.99
2018-05-07T04:26:35.665Z,10.95
2018-05-07T04:27:35.590Z,10.95
2018-05-07T04:28:35.515Z,10.96
2018-05-07T04:29:35.440Z,10.85
2018-05-07T04:30:35.365Z,10.85
2018-05-07T04:31:35.290Z,10.92
2018-05-07T04:32:35.212Z,10.80
2018-05-07T04:33:35.136Z,10.88
2018-05-07T04:34:35.062Z,10.84
2018-05-07T04:35:34.986Z,10.84
2018-05-07T04:36:34.973Z,10.87
2018-05-07T04:37:34.834Z,10.81
2018-05-07T04:38:34.757Z,10.81
2018-05-07T04:39:34.681Z,10.80
2018-05-07T04:40:34.606Z,10.75
2018-05-07T04:41:34.532Z,10.78
2018-05-07T04:42:34.454Z,10.81
2018-05-07T04:43:34.379Z,10.84
2018-05-07T04:44:34.306Z,10.84
2018-05-07T04:45:34.231Z,10.84
2018-05-07T04:46:34.151Z,10.75
2018-05-07T04:47:34.076Z,10.80
2018-05-07T04:48:34.001Z,10.56
2018-05-07T04:49:33.925Z,10.58
2018-05-07T04:50:33.852Z,10.62
2018-05-07T04:51:33.773Z,10.58
2018-05-07T04:52:33.699Z,10.65
2018-05-07T04:53:33.623Z,10.60
2018-05-07T04:54:33.546Z,10.73
2018-05-07T04:55:33.470Z,10.67
2018-05-07T04:56:33.394Z,10.66
2018-05-07T04:57:33.323Z,10.66
2018-05-07T04:58:33.243Z,10.53
2018-05-07T04:59:33.167Z,10.65
2018-05-07T05:00:33.090Z,10.66
2018-05-07T05:01:33.016Z,10.60
2018-05-07T05:02:32.938Z,10.59
2018-05-07T05:03:32.939Z,10.74
2018-05-07T05:04:32.788Z,10.88
2018-05-07T05:05:32.712Z,10.81
2018-05-07T05:06:32.635Z,11.03
2018-05-07T05:07:32.564Z,10.96
2018-05-07T05:08:32.483Z,11.18
2018-05-07T05:09:32.409Z,11.26
2018-05-07T05:10:32.332Z,11.54
2018-05-07T05:11:32.257Z,11.65
2018-05-07T05:12:32.183Z,11.79
2018-05-07T05:13:32.106Z,11.97
2018-05-07T05:14:32.029Z,12.13
2018-05-07T05:15:31.955Z,12.12
2018-05-07T05:16:31.879Z,12.36
2018-05-07T05:17:31.804Z,12.45
2018-05-07T05:18:31.726Z,12.48
2018-05-07T05:19:31.654Z,12.78
2018-05-07T05:20:31.578Z,12.79
2018-05-07T05:21:31.542Z,12.96
2018-05-07T05:22:31.426Z,13.10
2018-05-07T05:23:31.351Z,13.10
2018-05-07T05:24:31.276Z,13.21
2018-05-07T05:25:31.201Z,13.24
2018-05-07T05:26:31.125Z,13.55
2018-05-07T05:27:31.053Z,13.63
2018-05-07T05:28:30.976Z,13.70
2018-05-07T05:29:30.906Z,13.87
2018-05-07T05:30:30.825Z,13.98
2018-05-07T05:31:30.753Z,14.10
2018-05-07T05:32:30.677Z,14.14
2018-05-07T05:33:30.601Z,14.21
2018-05-07T05:34:30.526Z,14.20
2018-05-07T05:35:30.456Z,14.31
2018-05-07T05:36:30.377Z,14.35
2018-05-07T05:37:30.305Z,14.35
2018-05-07T05:38:30.228Z,14.35
2018-05-07T05:39:30.158Z,14.47
2018-05-07T05:40:30.080Z,14.39
2018-05-07T05:41:30.006Z,14.50
2018-05-07T05:42:29.929Z,14.52
2018-05-07T05:43:29.954Z,14.59
2018-05-07T05:44:29.782Z,14.61
2018-05-07T05:45:29.710Z,14.60
2018-05-07T05:46:29.634Z,14.69
2018-05-07T05:47:29.559Z,14.60
2018-05-07T05:48:29.485Z,14.65
2018-05-07T05:49:29.412Z,14.71
2018-05-07T05:50:29.337Z,14.72
2018-05-07T05:51:29.263Z,14.75
2018-05-07T05:52:29.190Z,14.74
2018-05-07T05:53:29.120Z,14.83
2018-05-07T05:54:29.040Z,14.83
2018-05-07T05:55:28.967Z,14.93
2018-05-07T05:56:28.907Z,14.95
2018-05-07T05:57:28.820Z,15.02
2018-05-07T05:58:28.745Z,14.98
2018-05-07T05:59:28.672Z,14.98
2018-05-07T06:00:28.599Z,14.98
2018-05-07T06:01:28.528Z,14.94
2018-05-07T06:02:28.451Z,15.09
2018-05-07T06:03:28.378Z,15.08
2018-05-07T06:04:28.310Z,15.09
2018-05-07T06:05:28.232Z,15.18
2018-05-07T06:06:28.157Z,15.21
2018-05-07T06:07:28.083Z,15.26
2018-05-07T06:08:28.012Z,15.39
2018-05-07T06:09:27.938Z,15.27
2018-05-07T06:10:27.864Z,15.42
2018-05-07T06:11:27.792Z,15.43
2018-05-07T06:12:27.717Z,15.45
2018-05-07T06:13:27.645Z,15.53
2018-05-07T06:14:27.657Z,15.63
2018-05-07T06:15:27.497Z,15.60
2018-05-07T06:16:27.425Z,15.70
2018-05-07T06:17:27.352Z,15.79
2018-05-07T06:18:27.278Z,15.76
2018-05-07T06:19:27.206Z,15.83
2018-05-07T06:20:27.134Z,15.86
2018-05-07T06:21:27.060Z,15.92
2018-05-07T06:22:26.989Z,16.01
2018-05-07T06:23:26.917Z,16.08
2018-05-07T06:24:26.841Z,16.01
2018-05-07T06:25:26.767Z,16.03
2018-05-07T06:26:26.695Z,16.01
2018-05-07T06:27:26.624Z,16.00
2018-05-07T06:28:26.550Z,16.12
2018-05-07T06:29:26.477Z,16.18
2018-05-07T06:30:26.409Z,16.23
2018-05-07T06:31:26.358Z,16.29
2018-05-07T06:32:26.262Z,16.18
2018-05-07T06:33:26.199Z,16.30
2018-05-07T06:34:26.206Z,16.33
2018-05-07T06:35:26.044Z,16.35
2018-05-07T06:36:25.970Z,16.30
2018-05-07T06:37:25.897Z,16.33
2018-05-07T06:38:25.825Z,16.40
2018-05-07T06:39:25.752Z,16.41
2018-05-07T06:40:25.680Z,16.60
2018-05-07T06:41:25.608Z,16.50
2018-05-07T06:42:25.536Z,16.67
2018-05-07T06:43:25.465Z,16.66
2018-05-07T06:44:25.391Z,16.65
2018-05-07T06:45:25.319Z,16.75
2018-05-07T06:46:25.249Z,16.82
2018-05-07T06:47:25.174Z,16.81
2018-05-07T06:48:25.102Z,17.02
2018-05-07T06:49:25.033Z,16.98
2018-05-07T06:50:24.958Z,17.11
2018-05-07T06:51:24.885Z,17.07
2018-05-07T06:52:24.814Z,17.18
2018-05-07T06:53:24.742Z,17.11
2018-05-07T06:54:24.672Z,17.25
2018-05-07T06:55:24.598Z,17.11
2018-05-07T06:56:24.526Z,17.21
2018-05-07T06:57:24.455Z,17.15
2018-05-07T06:58:24.382Z,17.21
2018-05-07T06:59:24.310Z,17.23
2018-05-07T07:00:24.241Z,17.20
2018-05-07T07:01:24.167Z,17.29
2018-05-07T07:02:24.111Z,17.36
2018-05-07T07:03:24.025Z,17.30
2018-05-07T07:04:23.953Z,17.46
2018-05-07T07:05:23.883Z,17.44
2018-05-07T07:06:23.809Z,17.44
2018-05-07T07:07:23.804Z,17.44
2018-05-07T07:08:23.777Z,17.51
2018-05-07T07:09:23.593Z,17.53
2018-05-07T07:10:23.527Z,17.57
2018-05-07T07:11:23.451Z,17.71
2018-05-07T07:12:23.378Z,17.69
2018-05-07T07:13:23.307Z,17.71
2018-05-07T07:14:23.235Z,17.74
2018-05-07T07:15:23.164Z,17.85
2018-05-07T07:16:23.137Z,17.87
2018-05-07T07:17:23.020Z,17.92
2018-05-07T07:18:22.948Z,17.92
2018-05-07T07:19:22.875Z,17.95
2018-05-07T07:20:22.805Z,17.92
2018-05-07T07:21:22.733Z,17.92
2018-05-07T07:22:22.662Z,17.84
2018-05-07T07:23:22.593Z,17.96
2018-05-07T07:24:22.519Z,17.98
2018-05-07T07:25:22.448Z,18.06
2018-05-07T07:26:22.381Z,18.10
2018-05-07T07:27:22.305Z,18.11
2018-05-07T07:28:22.235Z,18.18
2018-05-07T07:29:22.163Z,18.18
2018-05-07T07:30:22.090Z,18.19
2018-05-07T07:31:22.020Z,18.18
2018-05-07T07:32:21.948Z,18.18
2018-05-07T07:33:21.878Z,18.32
2018-05-07T07:34:21.805Z,18.44
2018-05-07T07:35:21.734Z,18.39
2018-05-07T07:36:21.664Z,18.50
2018-05-07T07:37:21.592Z,18.52
2018-05-07T07:38:21.520Z,18.62
2018-05-07T07:39:21.466Z,18.65
2018-05-07T07:40:21.379Z,18.57
2018-05-07T07:41:21.309Z,18.62
2018-05-07T07:42:21.237Z,18.69
2018-05-07T07:43:21.167Z,18.82
2018-05-07T07:44:21.095Z,18.76
2018-05-07T07:45:21.024Z,18.67
2018-05-07T07:46:20.952Z,18.73
2018-05-07T07:47:20.972Z,18.80
2018-05-07T07:48:20.811Z,18.89
2018-05-07T07:49:20.740Z,18.94
2018-05-07T07:50:20.669Z,18.92
2018-05-07T07:51:20.598Z,18.95
2018-05-07T07:52:20.536Z,19.01
2018-05-07T07:53:20.457Z,18.98
2018-05-07T07:54:20.386Z,19.11
2018-05-07T07:55:20.315Z,19.05
2018-05-07T07:56:20.246Z,19.02
2018-05-07T07:57:20.174Z,19.05
2018-05-07T07:58:20.103Z,19.08
2018-05-07T07:59:20.094Z,18.95
2018-05-07T08:00:19.962Z,18.99
2018-05-07T08:01:19.892Z,18.90
2018-05-07T08:02:19.822Z,18.86
2018-05-07T08:03:19.748Z,18.92
2018-05-07T08:04:19.736Z,18.87
2018-05-07T08:05:19.608Z,18.99
2018-05-07T08:06:19.537Z,19.11
2018-05-07T08:07:19.466Z,19.13
2018-05-07T08:08:19.395Z,19.13
2018-05-07T08:09:19.325Z,19.11
2018-05-07T08:10:19.253Z,19.21
2018-05-07T08:11:19.183Z,19.31
2018-05-07T08:12:19.227Z,19.32
2018-05-07T08:13:19.046Z,19.39
2018-05-07T08:14:18.972Z,19.45
2018-05-07T08:15:18.900Z,19.57
2018-05-07T08:16:18.830Z,19.61
2018-05-07T08:17:18.759Z,19.64
2018-05-07T08:18:18.688Z,19.73
2018-05-07T08:19:18.619Z,19.76
2018-05-07T08:20:18.547Z,19.73
2018-05-07T08:21:18.478Z,19.73
2018-05-07T08:22:18.407Z,19.78
2018-05-07T08:23:18.338Z,19.78
2018-05-07T08:24:18.266Z,19.90
2018-05-07T08:25:18.196Z,19.91
2018-05-07T08:26:18.125Z,19.87
2018-05-07T08:27:18.055Z,19.90
2018-05-07T08:28:17.986Z,20.06
2018-05-07T08:29:17.913Z,20.13
2018-05-07T08:30:17.843Z,20.08
2018-05-07T08:31:17.773Z,20.13
2018-05-07T08:32:17.703Z,20.09
2018-05-07T08:33:17.634Z,20.06
2018-05-07T08:34:17.563Z,20.13
2018-05-07T08:35:17.496Z,20.06
2018-05-07T08:36:17.422Z,19.91
2018-05-07T08:37:17.351Z,19.78
2018-05-07T08:38:17.281Z,19.72
2018-05-07T08:39:17.212Z,19.90
2018-05-07T08:40:17.141Z,20.01
2018-05-07T08:41:17.072Z,20.10
2018-05-07T08:42:17.042Z,20.15
2018-05-07T08:43:16.998Z,20.20
2018-05-07T08:44:16.860Z,20.08
2018-05-07T08:45:16.795Z,20.10
2018-05-07T08:46:16.722Z,20.10
2018-05-07T08:47:16.649Z,20.09
2018-05-07T08:48:16.579Z,20.20
2018-05-07T08:49:16.514Z,20.30
2018-05-07T08:50:16.443Z,20.37
2018-05-07T08:51:16.374Z,20.56
2018-05-07T08:52:16.299Z,20.57
2018-05-07T08:53:16.236Z,20.51
2018-05-07T08:54:16.157Z,20.43
2018-05-07T08:55:16.087Z,20.59
2018-05-07T08:56:16.022Z,20.56
2018-05-07T08:57:15.948Z,20.46
2018-05-07T08:58:15.878Z,20.33
2018-05-07T08:59:15.808Z,20.30
2018-05-07T09:00:15.737Z,20.30
2018-05-07T09:01:15.672Z,20.30
2018-05-07T09:02:15.645Z,20.31
2018-05-07T09:03:15.530Z,20.42
2018-05-07T09:04:15.458Z,20.43
2018-05-07T09:05:15.388Z,20.54
2018-05-07T09:06:15.317Z,20.56
2018-05-07T09:07:15.247Z,20.65
2018-05-07T09:08:15.177Z,20.83
2018-05-07T09:09:15.109Z,20.86
2018-05-07T09:10:15.038Z,20.86
2018-05-07T09:11:14.968Z,20.90
2018-05-07T09:12:14.904Z,20.89
2018-05-07T09:13:14.830Z,20.91
2018-05-07T09:14:14.757Z,20.80
2018-05-07T09:15:14.689Z,20.94
2018-05-07T09:16:14.620Z,20.90
2018-05-07T09:17:14.549Z,20.94
2018-05-07T09:18:14.482Z,20.82
2018-05-07T09:19:14.414Z,20.87
2018-05-07T09:20:14.342Z,20.91
2018-05-07T09:21:14.277Z,21.08
2018-05-07T09:22:14.200Z,21.06
2018-05-07T09:23:14.133Z,21.04
2018-05-07T09:24:14.063Z,20.91
2018-05-07T09:25:13.993Z,20.94
2018-05-07T09:26:13.923Z,20.94
2018-05-07T09:27:13.853Z,20.86
2018-05-07T09:28:13.785Z,20.94
2018-05-07T09:29:13.716Z,21.09
2018-05-07T09:30:13.645Z,21.09
2018-05-07T09:31:13.576Z,21.21
2018-05-07T09:32:13.508Z,21.30
2018-05-07T09:33:13.438Z,21.27
2018-05-07T09:34:13.373Z,21.35
2018-05-07T09:35:13.298Z,21.19
2018-05-07T09:36:13.228Z,21.19
2018-05-07T09:37:13.159Z,21.19
2018-05-07T09:38:13.090Z,21.12
2018-05-07T09:39:13.021Z,21.12
2018-05-07T09:40:12.952Z,21.12
2018-05-07T09:41:12.882Z,21.31
2018-05-07T09:42:12.813Z,21.46
2018-05-07T09:43:12.818Z,21.44
2018-05-07T09:44:12.675Z,21.45
2018-05-07T09:45:12.606Z,21.49
2018-05-07T09:46:12.535Z,21.36
2018-05-07T09:47:12.466Z,21.33
2018-05-07T09:48:12.398Z,21.27
2018-05-07T09:49:12.329Z,21.29
2018-05-07T09:50:12.257Z,21.49
2018-05-07T09:51:12.190Z,21.48
2018-05-07T09:52:12.119Z,21.53
2018-05-07T09:53:12.051Z,21.51
2018-05-07T09:54:11.981Z,21.57
2018-05-07T09:55:11.911Z,21.69
2018-05-07T09:56:11.842Z,21.66
2018-05-07T09:57:11.775Z,21.61
2018-05-07T09:58:11.704Z,21.49
2018-05-07T09:59:11.635Z,21.60
2018-05-07T10:00:11.564Z,21.61
2018-05-07T10:01:11.495Z,21.66
2018-05-07T10:02:11.432Z,21.66
2018-05-07T10:03:11.359Z,21.60
2018-05-07T10:04:11.290Z,21.81
2018-05-07T10:05:11.219Z,21.72
2018-05-07T10:06:11.148Z,21.82
2018-05-07T10:07:11.079Z,21.84
2018-05-07T10:08:11.010Z,21.84
2018-05-07T10:09:10.942Z,21.78
2018-05-07T10:10:10.871Z,21.66
2018-05-07T10:11:10.803Z,21.60
2018-05-07T10:12:10.735Z,21.79
2018-05-07T10:13:10.665Z,21.78
2018-05-07T10:14:10.594Z,21.79
2018-05-07T10:15:10.526Z,21.78
2018-05-07T10:16:10.458Z,21.66
2018-05-07T10:17:10.408Z,21.82
2018-05-07T10:18:10.324Z,22.07
2018-05-07T10:19:10.248Z,22.16
2018-05-07T10:20:10.182Z,22.16
2018-05-07T10:21:10.111Z,22.05
2018-05-07T10:22:10.041Z,21.98
2018-05-07T10:23:09.975Z,21.95
2018-05-07T10:24:09.948Z,21.86
2018-05-07T10:25:09.835Z,21.94
2018-05-07T10:26:09.768Z,21.98
2018-05-07T10:27:09.696Z,22.02
2018-05-07T10:28:09.627Z,22.02
2018-05-07T10:29:09.559Z,22.13
2018-05-07T10:30:09.488Z,22.15
2018-05-07T10:31:09.421Z,22.13
2018-05-07T10:32:09.351Z,22.10
2018-05-07T10:33:09.282Z,22.15
2018-05-07T10:34:09.212Z,22.17
2018-05-07T10:35:09.143Z,22.08
2018-05-07T10:36:09.075Z,22.24
2018-05-07T10:37:09.006Z,22.24
2018-05-07T10:38:08.937Z,22.28
2018-05-07T10:39:08.867Z,22.24
2018-05-07T10:40:08.798Z,22.30
2018-05-07T10:41:08.731Z,22.19
2018-05-07T10:42:08.660Z,22.24
2018-05-07T10:43:08.592Z,22.24
2018-05-07T10:44:08.523Z,22.32
2018-05-07T10:45:08.454Z,22.35
2018-05-07T10:46:08.386Z,22.50
2018-05-07T10:47:08.317Z,22.34
2018-05-07T10:48:08.247Z,22.28
2018-05-07T10:49:08.225Z,22.16
2018-05-07T10:50:08.109Z,22.35
2018-05-07T10:51:08.041Z,22.38
2018-05-07T10:52:07.972Z,22.47
2018-05-07T10:53:07.906Z,22.59
2018-05-07T10:54:07.834Z,22.78
2018-05-07T10:55:07.766Z,22.96
2018-05-07T10:56:07.708Z,23.05
2018-05-07T10:57:07.630Z,23.02
2018-05-07T10:58:07.562Z,23.12
2018-05-07T10:59:07.493Z,23.11
2018-05-07T11:00:07.425Z,23.07
2018-05-07T11:01:07.358Z,23.14
2018-05-07T11:02:07.290Z,23.20
2018-05-07T11:03:07.222Z,23.15
2018-05-07T11:04:07.154Z,23.05
2018-05-07T11:05:07.088Z,23.14
2018-05-07T11:06:07.019Z,23.07
2018-05-07T11:07:06.951Z,22.83
2018-05-07T11:08:06.886Z,22.99
2018-05-07T11:09:06.816Z,22.97
2018-05-07T11:10:06.748Z,23.14
2018-05-07T11:11:06.681Z,23.09
2018-05-07T11:12:06.614Z,23.23
2018-05-07T11:13:06.547Z,23.37
2018-05-07T11:14:06.480Z,23.48
2018-05-07T11:15:06.412Z,23.56
2018-05-07T11:16:06.348Z,23.68
2018-05-07T11:17:06.280Z,23.74
2018-05-07T11:18:06.214Z,23.70
2018-05-07T11:19:06.145Z,23.53
2018-05-07T11:20:06.078Z,23.67
2018-05-07T11:21:06.011Z,23.80
2018-05-07T11:22:05.946Z,23.95
2018-05-07T11:23:05.883Z,23.98
2018-05-07T11:24:05.809Z,24.02
2018-05-07T11:25:05.747Z,23.82
2018-05-07T11:26:05.675Z,23.85
2018-05-07T11:27:05.608Z,23.78
2018-05-07T11:28:05.543Z,23.87
2018-05-07T11:29:05.476Z,23.80
2018-05-07T11:30:05.409Z,24.00
2018-05-07T11:31:05.367Z,24.16
2018-05-07T11:32:05.276Z,24.42
2018-05-07T11:33:05.210Z,24.86
2018-05-07T11:34:05.143Z,25.05
2018-05-07T11:35:05.080Z,25.15
2018-05-07T11:36:05.012Z,25.45
2018-05-07T11:37:04.946Z,26.08
2018-05-07T11:38:04.881Z,26.35
2018-05-07T11:39:04.913Z,26.84
2018-05-07T11:40:04.753Z,26.77
2018-05-07T11:41:04.691Z,26.75
2018-05-07T11:42:04.624Z,27.19
2018-05-07T11:43:04.561Z,27.27
2018-05-07T11:44:04.497Z,27.67
2018-05-07T11:45:04.436Z,27.49
2018-05-07T11:46:04.375Z,27.64
2018-05-07T11:47:04.314Z,27.08
2018-05-07T11:48:04.251Z,26.89
2018-05-07T11:49:04.191Z,27.50
2018-05-07T11:50:04.129Z,27.89
2018-05-07T11:51:04.069Z,26.95
2018-05-07T11:52:04.011Z,27.36
2018-05-07T11:53:03.950Z,27.80
2018-05-07T11:54:03.891Z,28.04
2018-05-07T11:55:03.831Z,28.36
2018-05-07T11:56:03.772Z,28.83
2018-05-07T11:57:03.715Z,28.17
2018-05-07T11:58:03.656Z,28.29
2018-05-07T11:59:03.597Z,28.25
2018-05-07T12:00:03.540Z,28.62
2018-05-07T12:01:03.481Z,28.36
2018-05-07T12:02:03.424Z,27.98
2018-05-07T12:03:03.368Z,28.02
2018-05-07T12:04:03.311Z,28.78
2018-05-07T12:05:03.253Z,29.22
2018-05-07T12:06:03.197Z,28.69
2018-05-07T12:07:03.140Z,28.06
2018-05-07T12:08:03.149Z,28.28
2018-05-07T12:09:03.034Z,28.84
2018-05-07T12:10:02.971Z,28.84
2018-05-07T12:11:02.913Z,29.23
2018-05-07T12:12:02.859Z,28.68
2018-05-07T12:13:02.805Z,28.02
2018-05-07T12:14:02.748Z,28.11
2018-05-07T12:15:02.691Z,28.41
2018-05-07T12:16:02.684Z,29.09
2018-05-07T12:17:02.580Z,29.14
2018-05-07T12:18:02.525Z,29.21
2018-05-07T12:19:02.470Z,29.10
2018-05-07T12:20:02.414Z,29.07
2018-05-07T12:21:02.362Z,28.76
2018-05-07T12:22:02.303Z,28.98
2018-05-07T12:23:02.249Z,28.54
2018-05-07T12:24:02.195Z,28.36
2018-05-07T12:25:02.141Z,28.16
2018-05-07T12:26:02.083Z,28.69
2018-05-07T12:27:02.029Z,29.43
2018-05-07T12:28:01.975Z,29.83
2018-05-07T12:29:01.919Z,30.10
2018-05-07T12:30:01.864Z,29.78
2018-05-07T12:31:01.808Z,29.63
2018-05-07T12:32:01.755Z,30.32
2018-05-07T12:33:01.702Z,29.60
2018-05-07T12:34:01.648Z,28.36
2018-05-07T12:35:01.592Z,27.67
2018-05-07T12:36:01.537Z,27.39
2018-05-07T12:37:01.484Z,27.39
2018-05-07T12:38:01.426Z,28.28
2018-05-07T12:39:01.372Z,28.68
2018-05-07T12:40:01.319Z,28.86
2018-05-07T12:41:01.266Z,29.62
2018-05-07T12:42:01.207Z,30.15
2018-05-07T12:43:01.154Z,30.29
2018-05-07T12:44:01.101Z,30.55
2018-05-07T12:45:01.045Z,30.29
2018-05-07T12:46:00.989Z,29.19
2018-05-07T12:47:00.937Z,29.11
2018-05-07T12:48:00.882Z,29.65
2018-05-07T12:49:00.829Z,29.77
2018-05-07T12:50:00.772Z,29.73
2018-05-07T12:51:00.718Z,29.87
2018-05-07T12:52:00.665Z,30.33
2018-05-07T12:53:00.611Z,30.89